Pagrindinis puslapis
METAR-TAF:

METAR-TAF

Oro uostai :

Princesės Julianos tarptautinis oro uostas

Sint Martenas, Nyderlandų Antilai

platuma: 18-03N, ilguma: 063-07W, Aukštis: 4 m

Dabartinis oras

Ataskaita buvo paskelbta 1 valandą ir 1 minutes, ne 00:00 UTC
Vėjas 13 kt iš Rytų/Šiaurės Rytų
Temperatūra 26°C
Drėgmė 74%
Slėgis 1017 hPa
Matomumas 10 km arba daugiau
Mažai debesys ne aukštis 1800 ft

METAR: TNCM 290000Z 06013KT 9999 FEW018 26/21 Q1017 NOSIG

Laikas: 21:01 (01:01 UTC)

Prognozė

Ataskaita buvo paskelbta 1 valandą ir 23 minutes, ne 23:38 UTC
Prognozė galioja nuo 29 metu 00 UTC su 29 metu 24 UTC
Vėjas 13 kt iš Rytų/Šiaurės Rytų
Matomumas: 10 km
Mažai debesys ne aukštis 1800 ft
Mažai debesys ne aukštis 2200 ft

TAF: TNCM 282338Z 2900/2924 06013KT P6SM FEW018 FEW022

Orai ataskaitas ir orų prognozės (METAR, TAF).

turimą stotys yra geltonos ir raudonos taškus žemėlapyje.

Perkelti pele per norėdami pamatyti stoties vardą.

Tada spustelėkite, norėdami matyti oro stebėjimo ir prognozės.

Norėdami pakeisti žemėlapį: spustelėkite ant žalios mygtukų su juodo kryžiaus žemyn,; žalią mygtuką su brūkšneliu, jei norite nutolinti; arba žalių rodyklių gretimoms žemėlapius.


METAR-TAF: